Fairview, Louisiana
Current Conditions -  °F | °C
As of 9:55 PM on Sunday 23 Nov 2014 (Local Time) from KHEZ Reporting Station
Clear Clear  
Wind Chill: 64°   Ceiling: Unl
Heat Index: 64°   Visibility: 10mi
Dew Point: 59°   Wind: 10mph
Humidity: 83%   Direction: 190°S
Pressure: 29.66"   Gusts: 20mph
Location:  31.5712°N, 91.5148°W
Report Text: KHEZ 240355Z AUTO 19009G17KT 10SM CLR 18/15 A2966 RMK AO1
Loading
Personal Weather Stations






























Interactive Weather Map New forecast layout! Learn more

10-Day Weather Forecast

Advertisements
Track Severe Weather on mobile